createdAt,value
2018-12-05T00:01:52.886Z,33.73
2018-12-05T00:04:20.386Z,19.07
2018-12-05T00:06:49.033Z,31.40
2018-12-05T00:09:16.615Z,20.40
2018-12-05T00:11:44.114Z,22.93
2018-12-05T00:14:11.940Z,24.87
2018-12-05T00:16:39.664Z,35.60
2018-12-05T00:19:07.254Z,23.63
2018-12-05T00:21:34.906Z,15.03
2018-12-05T00:24:02.436Z,24.13
2018-12-05T00:26:29.957Z,18.10
2018-12-05T00:28:57.472Z,45.87
2018-12-05T00:31:24.996Z,17.30
2018-12-05T00:33:53.133Z,35.67
2018-12-05T00:36:20.624Z,18.30
2018-12-05T00:38:49.002Z,24.67
2018-12-05T00:41:17.122Z,24.63
2018-12-05T00:43:44.676Z,49.80
2018-12-05T00:46:12.176Z,22.30
2018-12-05T00:48:39.909Z,27.00
2018-12-05T00:51:07.409Z,28.20
2018-12-05T00:53:34.925Z,34.30
2018-12-05T00:56:02.710Z,29.97
2018-12-05T00:58:30.318Z,21.00
2018-12-05T01:00:58.775Z,44.07
2018-12-05T01:03:26.480Z,25.97
2018-12-05T01:05:55.219Z,19.43
2018-12-05T01:08:22.727Z,17.20
2018-12-05T01:10:50.265Z,12.60
2018-12-05T01:13:17.755Z,20.23
2018-12-05T01:15:45.247Z,16.80
2018-12-05T01:18:12.736Z,23.80
2018-12-05T01:20:40.288Z,10.00
2018-12-05T01:23:08.725Z,21.80
2018-12-05T01:25:36.852Z,7.53
2018-12-05T01:28:04.533Z,23.17
2018-12-05T01:30:32.053Z,25.23
2018-12-05T01:32:59.919Z,26.03
2018-12-05T01:35:28.018Z,26.47
2018-12-05T01:37:55.618Z,36.33
2018-12-05T01:40:23.125Z,22.83
2018-12-05T01:42:50.859Z,18.93
2018-12-05T01:45:19.360Z,26.47
2018-12-05T01:47:46.980Z,31.57
2018-12-05T01:50:15.392Z,19.40
2018-12-05T01:52:42.982Z,21.80
2018-12-05T01:55:10.506Z,19.20
2018-12-05T01:57:38.088Z,30.43
2018-12-05T02:00:06.816Z,28.67
2018-12-05T02:02:34.992Z,42.23
2018-12-05T02:05:02.653Z,14.13
2018-12-05T02:07:30.165Z,15.13
2018-12-05T02:09:57.874Z,17.73
2018-12-05T02:12:25.883Z,24.53
2018-12-05T02:14:53.585Z,16.60
2018-12-05T02:17:21.615Z,30.50
2018-12-05T02:19:50.391Z,29.43
2018-12-05T02:22:17.893Z,16.53
2018-12-05T02:24:45.505Z,32.37
2018-12-05T02:27:13.282Z,35.37
2018-12-05T02:29:46.727Z,12.53
2018-12-05T02:32:14.223Z,33.13
2018-12-05T02:34:41.807Z,26.10
2018-12-05T02:37:09.412Z,33.37
2018-12-05T02:39:36.934Z,21.73
2018-12-05T02:42:04.460Z,14.93
2018-12-05T02:44:32.096Z,25.33
2018-12-05T02:46:59.744Z,16.50
2018-12-05T02:49:27.622Z,17.47
2018-12-05T02:51:55.652Z,28.83
2018-12-05T02:54:23.489Z,18.60
2018-12-05T02:56:51.082Z,17.83
2018-12-05T02:59:18.940Z,20.10
2018-12-05T03:01:46.517Z,20.83
2018-12-05T03:04:14.013Z,33.57
2018-12-05T03:09:35.438Z,18.77
2018-12-05T03:14:56.012Z,18.43
2018-12-05T03:17:23.608Z,21.70
2018-12-05T03:19:51.270Z,11.43
2018-12-05T03:22:18.936Z,18.23
2018-12-05T03:24:46.428Z,11.80
2018-12-05T03:27:14.532Z,21.43
2018-12-05T03:29:42.303Z,17.30
2018-12-05T03:32:10.956Z,15.93
2018-12-05T03:34:39.391Z,13.37
2018-12-05T03:37:06.966Z,31.73
2018-12-05T03:39:34.449Z,26.87
2018-12-05T03:42:01.966Z,25.80
2018-12-05T03:44:30.340Z,14.37
2018-12-05T03:46:57.962Z,14.47
2018-12-05T03:49:25.653Z,21.57
2018-12-05T03:51:53.972Z,11.10
2018-12-05T03:54:21.609Z,22.10
2018-12-05T03:56:49.110Z,13.87
2018-12-05T03:59:16.770Z,22.60
2018-12-05T04:01:44.598Z,12.60
2018-12-05T04:04:12.783Z,14.83
2018-12-05T04:06:40.462Z,18.23
2018-12-05T04:09:09.509Z,10.80
2018-12-05T04:11:37.950Z,5.90
2018-12-05T04:14:05.799Z,18.53
2018-12-05T04:16:33.558Z,28.17
2018-12-05T04:19:01.309Z,21.17
2018-12-05T04:21:29.067Z,19.80
2018-12-05T04:23:56.743Z,20.57
2018-12-05T04:26:25.235Z,12.17
2018-12-05T04:28:52.889Z,21.77
2018-12-05T04:31:20.610Z,12.60
2018-12-05T04:33:48.433Z,16.93
2018-12-05T04:36:16.160Z,16.20
2018-12-05T04:38:44.476Z,12.33
2018-12-05T04:41:12.052Z,21.57
2018-12-05T04:43:39.971Z,24.37
2018-12-05T04:46:08.490Z,23.00
2018-12-05T04:48:36.840Z,25.47
2018-12-05T04:51:05.042Z,18.95
2018-12-05T04:53:33.518Z,13.13
2018-12-05T04:56:01.090Z,29.50
2018-12-05T04:58:28.834Z,21.30
2018-12-05T05:00:56.611Z,19.50
2018-12-05T05:03:24.360Z,23.50
2018-12-05T05:05:52.121Z,23.43
2018-12-05T05:08:28.231Z,15.33
2018-12-05T05:11:01.952Z,24.53
2018-12-05T05:13:43.500Z,14.50
2018-12-05T05:16:12.008Z,21.47
2018-12-05T05:18:52.064Z,19.43
2018-12-05T05:21:19.682Z,9.50
2018-12-05T05:26:49.234Z,26.13
2018-12-05T05:29:17.712Z,20.80
2018-12-05T05:31:45.409Z,24.73
2018-12-05T05:34:13.041Z,18.93
2018-12-05T05:36:40.661Z,21.87
2018-12-05T05:39:09.207Z,20.80
2018-12-05T05:41:37.637Z,21.87
2018-12-05T05:49:00.463Z,25.47
2018-12-05T05:51:30.140Z,16.13
2018-12-05T05:53:58.367Z,30.67
2018-12-05T05:56:26.022Z,11.80
2018-12-05T05:59:00.347Z,30.10
2018-12-05T06:01:28.752Z,13.93
2018-12-05T06:03:56.539Z,14.37
2018-12-05T06:06:45.917Z,10.00
2018-12-05T06:09:13.487Z,26.43
2018-12-05T06:11:44.471Z,27.67
2018-12-05T06:14:12.995Z,21.83
2018-12-05T06:16:40.766Z,20.77
2018-12-05T06:19:08.383Z,30.17
2018-12-05T06:21:35.998Z,27.80
2018-12-05T06:24:03.647Z,26.80
2018-12-05T06:26:32.067Z,45.57
2018-12-05T06:29:03.151Z,28.70
2018-12-05T06:31:37.083Z,56.27
2018-12-05T06:34:04.778Z,34.50
2018-12-05T06:36:32.325Z,26.93
2018-12-05T06:38:59.961Z,46.03
2018-12-05T06:41:27.760Z,75.40
2018-12-05T06:43:55.325Z,43.23
2018-12-05T06:46:26.795Z,34.90
2018-12-05T06:56:11.950Z,36.57
2018-12-05T06:58:45.785Z,71.77
2018-12-05T07:01:21.217Z,113.67
2018-12-05T07:03:48.813Z,53.97
2018-12-05T07:06:17.165Z,47.27
2018-12-05T07:08:45.729Z,43.10
2018-12-05T07:11:21.757Z,49.43
2018-12-05T07:14:04.540Z,34.60
2018-12-05T07:16:32.373Z,38.37
2018-12-05T07:19:00.044Z,35.53
2018-12-05T07:21:27.819Z,46.50
2018-12-05T07:24:01.723Z,41.53
2018-12-05T07:26:29.503Z,53.27
2018-12-05T07:28:57.306Z,66.50
2018-12-05T07:31:25.122Z,43.13
2018-12-05T07:33:53.262Z,45.00
2018-12-05T07:36:21.090Z,42.27
2018-12-05T07:38:55.470Z,32.60
2018-12-05T07:41:23.939Z,48.50
2018-12-05T07:43:51.541Z,42.17
2018-12-05T07:46:19.959Z,47.43
2018-12-05T07:48:47.948Z,46.83
2018-12-05T07:54:12.334Z,54.77
2018-12-05T07:56:39.838Z,60.43
2018-12-05T07:59:08.193Z,68.87
2018-12-05T08:01:45.497Z,75.77
2018-12-05T08:04:13.056Z,55.77
2018-12-05T08:06:40.830Z,63.57
2018-12-05T08:09:08.466Z,48.57
2018-12-05T08:11:41.996Z,53.33
2018-12-05T08:14:16.008Z,45.80
2018-12-05T08:16:47.386Z,56.83
2018-12-05T08:19:15.091Z,52.10
2018-12-05T08:24:39.721Z,29.23
2018-12-05T08:27:08.163Z,28.27
2018-12-05T08:29:36.165Z,33.03
2018-12-05T08:32:05.430Z,21.90
2018-12-05T08:34:33.636Z,28.43
2018-12-05T08:37:01.188Z,21.13
2018-12-05T08:39:29.624Z,26.33
2018-12-05T08:41:57.266Z,47.90
2018-12-05T08:44:24.985Z,55.33
2018-12-05T08:46:53.603Z,42.33
2018-12-05T08:49:21.139Z,21.27
2018-12-05T08:51:48.703Z,48.90
2018-12-05T08:54:21.052Z,34.33
2018-12-05T08:56:45.899Z,22.03
2018-12-05T08:59:19.970Z,31.17
2018-12-05T09:01:47.709Z,40.70
2018-12-05T09:04:15.883Z,34.83
2018-12-05T09:09:36.406Z,34.53
2018-12-05T09:12:04.432Z,31.63
2018-12-05T09:14:32.213Z,31.37
2018-12-05T09:17:00.637Z,31.07
2018-12-05T09:19:28.160Z,21.70
2018-12-05T09:21:55.755Z,24.70
2018-12-05T09:24:24.403Z,21.17
2018-12-05T09:26:51.911Z,23.87
2018-12-05T09:29:19.605Z,22.97
2018-12-05T09:31:47.174Z,17.90
2018-12-05T09:34:15.726Z,22.70
2018-12-05T09:36:43.386Z,23.53
2018-12-05T09:39:11.014Z,14.10
2018-12-05T09:41:42.143Z,11.90
2018-12-05T09:44:09.842Z,17.47
2018-12-05T09:46:37.435Z,23.03
2018-12-05T09:49:05.108Z,31.67
2018-12-05T09:51:32.718Z,19.63
2018-12-05T09:54:00.430Z,21.97
2018-12-05T09:56:28.018Z,14.70
2018-12-05T09:58:55.709Z,17.60
2018-12-05T10:01:23.243Z,18.13
2018-12-05T10:03:50.842Z,17.70
2018-12-05T10:06:18.533Z,16.77
2018-12-05T10:08:46.162Z,9.83
2018-12-05T10:11:14.164Z,21.87
2018-12-05T10:13:41.758Z,9.33
2018-12-05T10:16:09.490Z,9.30
2018-12-05T10:18:37.209Z,17.53
2018-12-05T10:21:04.897Z,17.20
2018-12-05T10:23:32.560Z,14.90
2018-12-05T10:26:00.898Z,9.83
2018-12-05T10:28:28.453Z,7.00
2018-12-05T10:30:56.144Z,3.50
2018-12-05T10:33:24.906Z,15.50
2018-12-05T10:35:52.644Z,6.50
2018-12-05T10:38:21.842Z,10.07
2018-12-05T10:40:49.490Z,10.60
2018-12-05T10:43:17.035Z,11.10
2018-12-05T10:45:44.758Z,8.70
2018-12-05T10:48:12.507Z,12.67
2018-12-05T10:50:40.109Z,15.77
2018-12-05T10:53:07.695Z,15.00
2018-12-05T10:55:36.247Z,13.37
2018-12-05T10:58:03.924Z,16.30
2018-12-05T11:00:47.031Z,9.13
2018-12-05T11:03:14.924Z,13.30
2018-12-05T11:05:48.151Z,12.93
2018-12-05T11:08:21.846Z,8.83
2018-12-05T11:10:55.138Z,12.83
2018-12-05T11:13:28.879Z,15.07
2018-12-05T11:16:03.492Z,8.10
2018-12-05T11:18:36.992Z,18.90
2018-12-05T11:21:10.931Z,8.00
2018-12-05T11:23:44.253Z,3.90
2018-12-05T11:26:14.636Z,13.80
2018-12-05T11:28:42.395Z,9.10
2018-12-05T11:31:10.082Z,14.77
2018-12-05T11:33:37.930Z,6.63
2018-12-05T11:36:05.598Z,8.47
2018-12-05T11:38:33.358Z,12.93
2018-12-05T11:41:01.064Z,4.60
2018-12-05T11:43:29.703Z,7.00
2018-12-05T11:45:58.286Z,7.50
2018-12-05T11:48:25.935Z,7.13
2018-12-05T11:50:53.819Z,6.43
2018-12-05T11:53:21.350Z,4.53
2018-12-05T11:55:49.126Z,5.97
2018-12-05T12:06:56.432Z,9.70
2018-12-05T12:09:24.865Z,10.87
2018-12-05T12:11:52.912Z,9.83
2018-12-05T12:14:21.440Z,8.93
2018-12-05T12:16:49.009Z,4.73
2018-12-05T12:19:16.519Z,4.70
2018-12-05T12:21:43.993Z,6.73
2018-12-05T12:24:11.506Z,6.40
2018-12-05T12:26:39.156Z,26.57
2018-12-05T12:29:09.210Z,10.47
2018-12-05T12:31:37.855Z,5.27
2018-12-05T12:34:08.234Z,8.37
2018-12-05T12:36:35.868Z,4.03
2018-12-05T12:39:06.557Z,9.87
2018-12-05T12:41:34.114Z,3.43
2018-12-05T12:44:01.883Z,9.07
2018-12-05T12:46:29.473Z,3.10
2018-12-05T12:48:56.986Z,4.20
2018-12-05T12:51:25.255Z,2.97
2018-12-05T12:53:53.341Z,3.40
2018-12-05T12:56:21.623Z,17.50
2018-12-05T12:58:50.760Z,3.73
2018-12-05T13:01:18.400Z,5.07
2018-12-05T13:03:47.698Z,5.80
2018-12-05T13:06:16.260Z,11.07
2018-12-05T13:08:45.018Z,13.53
2018-12-05T13:11:12.581Z,5.77
2018-12-05T13:13:40.071Z,7.13
2018-12-05T13:16:07.764Z,2.80
2018-12-05T13:18:35.568Z,10.33
2018-12-05T13:21:03.098Z,11.83
2018-12-05T13:23:32.020Z,5.97
2018-12-05T13:26:00.957Z,12.63
2018-12-05T13:28:28.797Z,2.97
2018-12-05T13:30:57.031Z,6.83
2018-12-05T13:33:25.523Z,9.60
2018-12-05T13:38:45.660Z,6.47
2018-12-05T13:41:14.303Z,4.97
2018-12-05T13:43:42.615Z,5.10
2018-12-05T13:46:11.725Z,5.93
2018-12-05T13:48:39.477Z,6.00
2018-12-05T13:51:07.094Z,4.30
2018-12-05T13:53:35.716Z,12.43
2018-12-05T13:56:03.238Z,9.17
2018-12-05T13:58:31.325Z,13.47
2018-12-05T14:00:58.803Z,11.20
2018-12-05T14:03:26.317Z,6.63
2018-12-05T14:05:53.820Z,8.13
2018-12-05T14:08:21.835Z,13.90
2018-12-05T14:11:00.376Z,5.60
2018-12-05T14:13:31.420Z,7.33
2018-12-05T14:15:59.435Z,5.70
2018-12-05T14:18:28.436Z,6.00
2018-12-05T14:20:57.313Z,6.43
2018-12-05T14:23:25.178Z,9.13
2018-12-05T14:25:53.463Z,12.80
2018-12-05T14:28:20.972Z,10.50
2018-12-05T14:30:48.493Z,10.50
2018-12-05T14:33:16.689Z,8.77
2018-12-05T14:35:44.571Z,13.93
2018-12-05T14:38:12.553Z,8.47
2018-12-05T14:40:40.915Z,8.43
2018-12-05T14:43:09.067Z,11.20
2018-12-05T14:45:36.618Z,8.77
2018-12-05T14:48:04.540Z,13.83
2018-12-05T14:50:32.051Z,7.67
2018-12-05T14:52:59.633Z,6.90
2018-12-05T14:55:28.169Z,6.27
2018-12-05T14:57:56.076Z,8.80
2018-12-05T15:00:23.623Z,9.50
2018-12-05T15:02:51.164Z,16.63
2018-12-05T15:05:18.664Z,10.50
2018-12-05T15:07:50.175Z,9.80
2018-12-05T15:10:17.808Z,12.53
2018-12-05T15:12:47.649Z,13.13
2018-12-05T15:15:15.161Z,9.20
2018-12-05T15:17:42.762Z,11.57
2018-12-05T15:20:11.850Z,12.40
2018-12-05T15:22:40.179Z,14.03
2018-12-05T15:25:07.857Z,11.33
2018-12-05T15:27:35.859Z,14.73
2018-12-05T15:30:04.837Z,12.03
2018-12-05T15:32:32.360Z,15.67
2018-12-05T15:35:00.851Z,28.10
2018-12-05T15:37:28.594Z,11.50
2018-12-05T15:39:56.890Z,10.90
2018-12-05T15:42:25.250Z,14.27
2018-12-05T15:44:52.785Z,17.93
2018-12-05T15:47:21.123Z,19.50
2018-12-05T15:49:48.659Z,14.70
2018-12-05T15:52:17.595Z,7.80
2018-12-05T15:54:45.912Z,4.37
2018-12-05T15:57:13.488Z,10.97
2018-12-05T15:59:40.968Z,17.60
2018-12-05T16:02:09.452Z,11.40
2018-12-05T16:04:37.045Z,15.30
2018-12-05T16:07:05.599Z,14.63
2018-12-05T16:11:58.975Z,19.03
2018-12-05T16:14:26.460Z,17.07
2018-12-05T16:16:54.052Z,19.17
2018-12-05T16:19:21.585Z,7.90
2018-12-05T16:21:49.051Z,7.57
2018-12-05T16:24:17.091Z,10.23
2018-12-05T16:26:44.576Z,9.13
2018-12-05T16:29:12.071Z,22.40
2018-12-05T16:31:39.578Z,18.37
2018-12-05T16:34:07.074Z,14.00
2018-12-05T16:36:34.836Z,28.00
2018-12-05T16:39:04.705Z,21.63
2018-12-05T16:41:32.737Z,13.83
2018-12-05T16:44:00.648Z,12.77
2018-12-05T16:46:28.446Z,26.70
2018-12-05T16:48:56.490Z,11.93
2018-12-05T16:51:24.062Z,9.83
2018-12-05T16:53:51.662Z,14.93
2018-12-05T16:56:19.728Z,17.33
2018-12-05T16:58:47.481Z,12.30
2018-12-05T17:01:15.185Z,16.80
2018-12-05T17:03:43.202Z,18.40
2018-12-05T17:06:10.973Z,16.10
2018-12-05T17:08:38.662Z,14.80
2018-12-05T17:11:06.205Z,16.20
2018-12-05T17:13:36.063Z,20.20
2018-12-05T17:16:03.842Z,13.23
2018-12-05T17:18:32.476Z,29.53
2018-12-05T17:21:00.949Z,15.00
2018-12-05T17:23:28.562Z,9.03
2018-12-05T17:25:56.292Z,36.77
2018-12-05T17:28:24.367Z,10.00
2018-12-05T17:30:52.924Z,16.43
2018-12-05T17:33:20.810Z,19.93
2018-12-05T17:35:48.709Z,28.87
2018-12-05T17:38:16.329Z,15.47
2018-12-05T17:40:44.974Z,22.50
2018-12-05T17:43:12.732Z,20.37
2018-12-05T17:45:40.924Z,19.43
2018-12-05T17:48:08.530Z,27.67
2018-12-05T17:50:36.302Z,21.83
2018-12-05T17:53:05.291Z,27.27
2018-12-05T17:55:33.022Z,24.87
2018-12-05T17:58:01.827Z,34.27
2018-12-05T18:00:31.170Z,19.43
2018-12-05T18:02:58.710Z,23.67
2018-12-05T18:05:26.731Z,34.93
2018-12-05T18:07:56.123Z,24.00
2018-12-05T18:10:24.321Z,19.60
2018-12-05T18:12:51.838Z,19.50
2018-12-05T18:15:19.345Z,30.47
2018-12-05T18:17:48.278Z,31.03
2018-12-05T18:20:15.808Z,26.27
2018-12-05T18:22:43.318Z,20.77
2018-12-05T18:25:11.321Z,15.83
2018-12-05T18:27:38.819Z,19.00
2018-12-05T18:30:06.880Z,15.43
2018-12-05T18:32:34.769Z,23.07
2018-12-05T18:35:02.292Z,17.27
2018-12-05T18:37:30.660Z,12.30
2018-12-05T18:39:58.198Z,15.30
2018-12-05T18:42:25.836Z,20.73
2018-12-05T18:44:53.365Z,15.60
2018-12-05T18:47:20.867Z,16.80
2018-12-05T18:49:48.411Z,17.40
2018-12-05T18:52:16.399Z,14.37
2018-12-05T18:54:44.018Z,9.53
2018-12-05T18:57:11.773Z,10.87
2018-12-05T18:59:39.703Z,33.40
2018-12-05T19:02:07.855Z,11.90
2018-12-05T19:04:36.889Z,17.47
2018-12-05T19:07:05.163Z,17.77
2018-12-05T19:09:32.700Z,17.13
2018-12-05T19:12:02.180Z,10.73
2018-12-05T19:14:36.607Z,19.00
2018-12-05T19:17:04.787Z,15.70
2018-12-05T19:19:32.366Z,15.83
2018-12-05T19:22:00.701Z,15.73
2018-12-05T19:24:29.617Z,12.73
2018-12-05T19:26:58.151Z,11.93
2018-12-05T19:29:26.335Z,8.80
2018-12-05T19:31:54.775Z,11.80
2018-12-05T19:34:22.911Z,6.13
2018-12-05T19:36:51.353Z,14.23
2018-12-05T19:39:20.855Z,9.60
2018-12-05T19:41:49.287Z,16.50
2018-12-05T19:44:17.580Z,10.90
2018-12-05T19:46:45.738Z,14.60
2018-12-05T19:49:13.618Z,16.87
2018-12-05T19:51:44.035Z,13.50
2018-12-05T19:54:14.007Z,13.70
2018-12-05T19:56:42.619Z,7.70
2018-12-05T19:59:17.874Z,18.20
2018-12-05T20:01:46.232Z,12.20
2018-12-05T20:04:16.103Z,23.47
2018-12-05T20:06:44.514Z,10.83
2018-12-05T20:09:12.127Z,16.27
2018-12-05T20:11:43.195Z,22.90
2018-12-05T20:14:13.939Z,14.77
2018-12-05T20:16:41.464Z,22.53
2018-12-05T20:19:09.713Z,16.90
2018-12-05T20:21:37.214Z,15.07
2018-12-05T20:24:04.717Z,20.93
2018-12-05T20:26:32.229Z,14.57
2018-12-05T20:28:59.747Z,16.37
2018-12-05T20:31:28.052Z,12.17
2018-12-05T20:34:09.523Z,29.33
2018-12-05T20:36:37.094Z,13.17
2018-12-05T20:39:09.161Z,14.70
2018-12-05T20:41:36.872Z,9.53
2018-12-05T20:44:04.457Z,22.80
2018-12-05T20:46:32.023Z,14.67
2018-12-05T20:48:59.520Z,20.63
2018-12-05T20:51:28.026Z,19.43
2018-12-05T20:53:56.651Z,16.63
2018-12-05T20:56:24.676Z,22.53
2018-12-05T20:58:53.412Z,18.20
2018-12-05T21:01:21.469Z,21.80
2018-12-05T21:03:50.291Z,14.13
2018-12-05T21:06:19.317Z,31.40
2018-12-05T21:08:48.297Z,10.07
2018-12-05T21:11:16.529Z,14.40
2018-12-05T21:13:44.990Z,14.90
2018-12-05T21:16:13.009Z,11.63
2018-12-05T21:18:42.344Z,24.13
2018-12-05T21:21:10.738Z,14.03
2018-12-05T21:23:39.077Z,16.00
2018-12-05T21:26:07.690Z,9.00
2018-12-05T21:28:39.181Z,23.87
2018-12-05T21:31:06.711Z,19.53
2018-12-05T21:33:34.211Z,10.20
2018-12-05T21:36:02.416Z,15.20
2018-12-05T21:40:52.778Z,14.27
2018-12-05T21:43:20.538Z,15.23
2018-12-05T21:45:51.467Z,13.87
2018-12-05T21:48:19.326Z,12.93
2018-12-05T21:50:47.154Z,18.50
2018-12-05T21:53:17.819Z,15.20
2018-12-05T21:55:45.589Z,9.37
2018-12-05T21:58:13.762Z,11.07
2018-12-05T22:00:41.514Z,14.73
2018-12-05T22:03:09.315Z,19.70
2018-12-05T22:05:37.466Z,17.13
2018-12-05T22:08:05.309Z,13.33
2018-12-05T22:10:33.060Z,8.67
2018-12-05T22:13:00.837Z,12.93
2018-12-05T22:15:28.341Z,7.07
2018-12-05T22:17:56.062Z,8.60
2018-12-05T22:20:23.774Z,13.23
2018-12-05T22:22:51.860Z,6.60
2018-12-05T22:25:19.482Z,12.23
2018-12-05T22:27:47.234Z,9.87
2018-12-05T22:30:15.075Z,15.40
2018-12-05T22:32:42.689Z,11.00
2018-12-05T22:35:10.321Z,11.53
2018-12-05T22:37:37.944Z,9.83
2018-12-05T22:40:07.256Z,9.57
2018-12-05T22:42:35.173Z,10.03
2018-12-05T22:45:03.164Z,8.67
2018-12-05T22:47:30.936Z,16.20
2018-12-05T22:49:58.503Z,8.77
2018-12-05T22:52:26.224Z,8.40
2018-12-05T22:54:54.463Z,14.13
2018-12-05T22:57:22.343Z,10.00
2018-12-05T22:59:49.962Z,26.67
2018-12-05T23:02:18.036Z,16.40
2018-12-05T23:04:46.200Z,10.07
2018-12-05T23:07:14.139Z,10.27
2018-12-05T23:09:41.993Z,15.00
2018-12-05T23:12:09.779Z,20.30
2018-12-05T23:14:37.525Z,11.40
2018-12-05T23:17:05.945Z,10.10
2018-12-05T23:19:33.702Z,15.00
2018-12-05T23:22:01.426Z,12.87
2018-12-05T23:24:29.197Z,11.30
2018-12-05T23:26:57.272Z,6.63
2018-12-05T23:29:25.060Z,9.83
2018-12-05T23:31:52.787Z,7.70
2018-12-05T23:34:20.404Z,7.00
2018-12-05T23:36:48.074Z,4.93
2018-12-05T23:39:15.805Z,9.63
2018-12-05T23:41:43.769Z,8.27
2018-12-05T23:44:11.587Z,9.07
2018-12-05T23:46:39.409Z,8.90
2018-12-05T23:49:07.039Z,6.60
2018-12-05T23:51:34.716Z,12.20
2018-12-05T23:54:02.498Z,9.77
2018-12-05T23:56:31.450Z,11.07
2018-12-05T23:58:58.991Z,7.60
